Big Ready, Kentucky
Current Conditions -  °F | °C
As of 9:53 AM on Friday 24 Oct 2014 (Local Time) from KBWG Reporting Station
Clear Clear  
Wind Chill: 57°   Ceiling: Unl
Heat Index: 57°   Visibility: 10mi
Dew Point: 47°   Wind: 0mph
Humidity: 69%   Direction: NA
Pressure: 30.14"   Gusts: NA
Location:  37.2302°N, 86.4364°W
Report Text: KBWG 241453Z AUTO 00000KT 10SM CLR 14/08 A3014 RMK AO2 SLP207 T01390083 50001
Loading
Personal Weather Stations






























Interactive Weather Map
Tropical Storm Tracking
New forecast layout! Learn more

10-Day Weather Forecast

Advertisements
Track Severe Weather on mobile